Time;durP1;ratioP1;P1;durP2;ratioP2;P2;SDS_P1;SDS_P2;PMS_P1;PMS_P2;Temp;Humidity;BMP_temperature;BMP_pressure;BME280_temperature;BME280_humidity;BME280_pressure;Samples;Min_cycle;Max_cycle;Signal;HPM_P1;HPM_P2
2022/07/07 00:02:14;;;;;;;4.73;3.30;;;;;;;16.72;54.78;155657.97;5070929;28;20569;-75
2022/07/07 00:04:41;;;;;;;3.43;3.13;;;;;;;16.70;54.96;155651.47;5071756;28;20859;-76
2022/07/07 00:07:07;;;;;;;3.40;3.10;;;;;;;16.69;55.19;155650.16;5050593;28;20439;-75
2022/07/07 00:09:35;;;;;;;4.00;2.90;;;;;;;16.68;55.04;155647.53;5060274;28;20541;-75
2022/07/07 00:12:02;;;;;;;3.30;3.00;;;;;;;16.67;55.19;155644.97;5103220;28;20524;-76
2022/07/07 00:14:29;;;;;;;3.70;3.13;;;;;;;16.68;55.17;155647.53;5069593;28;20461;-75
2022/07/07 00:16:56;;;;;;;3.70;3.37;;;;;;;16.69;55.29;155650.16;5052407;28;20461;-75
2022/07/07 00:19:23;;;;;;;3.57;3.27;;;;;;;16.69;55.60;155650.16;5078494;28;20501;-76
2022/07/07 00:21:50;;;;;;;4.63;3.50;;;;;;;16.69;55.14;155648.84;5070664;28;20868;-76
2022/07/07 00:24:17;;;;;;;4.10;3.17;;;;;;;16.69;54.97;155650.16;5070837;28;20545;-76
2022/07/07 00:26:45;;;;;;;4.03;3.57;;;;;;;16.68;55.36;155647.53;5070743;28;20473;-75
2022/07/07 00:29:11;;;;;;;3.53;3.23;;;;;;;16.66;55.37;155642.34;5100532;28;20536;-76
2022/07/07 00:31:38;;;;;;;4.03;3.20;;;;;;;16.67;55.72;155643.66;5065089;28;20515;-75
2022/07/07 00:34:05;;;;;;;3.40;3.10;;;;;;;16.66;55.77;155641.03;5104841;28;20485;-75
2022/07/07 00:36:31;;;;;;;7.63;2.87;;;;;;;16.65;55.77;155639.78;5111882;27;20575;-75
2022/07/07 00:38:58;;;;;;;3.60;3.10;;;;;;;16.61;56.49;155628.03;5104343;28;20473;-76
2022/07/07 00:41:25;;;;;;;3.20;2.90;;;;;;;16.58;56.54;155621.53;5070584;28;20473;-75
2022/07/07 00:43:53;;;;;;;4.33;3.23;;;;;;;16.57;56.29;155617.66;5071914;28;20574;-76
2022/07/07 00:46:20;;;;;;;3.27;2.30;;;;;;;16.57;56.32;155618.97;5104611;28;21202;-75
2022/07/07 00:48:47;;;;;;;3.40;2.73;;;;;;;16.57;56.54;155618.97;5102777;28;20471;-75
2022/07/07 00:51:14;;;;;;;3.10;2.70;;;;;;;16.59;56.13;155624.16;5102596;28;20465;-75
2022/07/07 00:53:41;;;;;;;3.10;2.43;;;;;;;16.59;56.40;155624.16;5073354;28;20503;-75
2022/07/07 00:56:08;;;;;;;7.73;3.13;;;;;;;16.59;56.53;155624.16;5072094;28;20465;-75
2022/07/07 00:58:35;;;;;;;3.53;2.90;;;;;;;16.60;56.68;155625.47;5071179;28;20535;-75
2022/07/07 01:01:04;;;;;;;3.10;2.87;;;;;;;16.55;56.85;155613.72;5103701;28;20463;-76
2022/07/07 01:03:31;;;;;;;2.80;2.47;;;;;;;16.56;56.84;155616.34;5070218;28;21520;-76
2022/07/07 01:05:58;;;;;;;2.97;2.30;;;;;;;16.55;56.94;155613.72;5070077;28;20469;-75
2022/07/07 01:08:25;;;;;;;2.93;2.63;;;;;;;16.55;57.16;155612.47;5054136;28;20450;-75
2022/07/07 01:10:52;;;;;;;2.83;2.20;;;;;;;16.55;56.97;155613.72;5077113;28;21041;-75
2022/07/07 01:13:19;;;;;;;5.10;2.73;;;;;;;16.54;56.97;155611.16;5070173;28;20529;-76
2022/07/07 01:15:45;;;;;;;3.37;2.73;;;;;;;16.55;57.16;155613.72;5087260;28;20449;-75
2022/07/07 01:18:14;;;;;;;2.83;2.60;;;;;;;16.54;57.41;155611.16;5078709;28;21195;-75
2022/07/07 01:20:43;;;;;;;5.43;2.70;;;;;;;16.54;57.26;155609.84;5086727;28;20480;-76
2022/07/07 01:23:11;;;;;;;5.40;2.70;;;;;;;16.54;57.31;155611.16;5052716;28;20562;-76
2022/07/07 01:25:38;;;;;;;2.90;2.70;;;;;;;16.53;57.06;155608.53;5089153;28;20509;-75
2022/07/07 01:28:04;;;;;;;3.10;2.77;;;;;;;16.52;57.19;155605.88;5070709;28;20426;-76
2022/07/07 01:30:31;;;;;;;2.70;2.30;;;;;;;16.52;57.17;155604.59;5104235;28;20936;-75
2022/07/07 01:32:58;;;;;;;4.57;2.93;;;;;;;16.50;57.07;155600.66;5086123;28;20503;-75
2022/07/07 01:35:24;;;;;;;2.70;2.50;;;;;;;16.51;57.52;155603.28;5052273;28;21118;-75
2022/07/07 01:37:51;;;;;;;3.23;2.80;;;;;;;16.49;57.55;155598.09;5068125;28;21024;-75
2022/07/07 01:40:19;;;;;;;4.17;3.00;;;;;;;16.47;58.05;155592.88;5070156;28;20545;-75
2022/07/07 01:42:46;;;;;;;3.53;2.70;;;;;;;16.47;58.39;155592.88;5071638;28;20469;-75
2022/07/07 01:45:13;;;;;;;3.00;2.80;;;;;;;16.46;58.43;155590.28;5069377;28;20472;-75
2022/07/07 01:47:39;;;;;;;3.50;2.90;;;;;;;16.44;58.39;155585.09;5071109;28;20422;-76
2022/07/07 01:50:07;;;;;;;3.23;2.90;;;;;;;16.46;58.45;155590.28;5070130;28;20449;-75
2022/07/07 01:52:35;;;;;;;3.27;2.60;;;;;;;16.43;58.72;155583.78;5082674;28;21065;-75
2022/07/07 01:55:02;;;;;;;5.27;2.77;;;;;;;16.43;58.57;155583.78;5102660;28;20450;-76
2022/07/07 01:57:30;;;;;;;5.63;3.10;;;;;;;16.41;59.12;155578.56;5069892;28;20870;-75
2022/07/07 01:59:56;;;;;;;3.33;2.70;;;;;;;16.42;58.79;155581.16;5063737;28;20562;-76
2022/07/07 02:02:23;;;;;;;3.10;2.67;;;;;;;16.41;58.68;155577.28;5091604;28;20472;-75
2022/07/07 02:04:50;;;;;;;2.93;2.60;;;;;;;16.41;58.77;155578.56;5068014;28;20461;-75
2022/07/07 02:07:17;;;;;;;3.30;2.50;;;;;;;16.41;58.58;155577.28;5074050;28;20480;-75
2022/07/07 02:09:44;;;;;;;3.20;2.63;;;;;;;16.40;58.68;155574.66;5075667;28;20485;-75
2022/07/07 02:12:10;;;;;;;3.70;2.70;;;;;;;16.39;58.95;155573.34;5056982;28;20455;-75
2022/07/07 02:14:39;;;;;;;4.10;2.77;;;;;;;16.38;59.04;155570.78;5064750;28;20442;-75
2022/07/07 02:17:05;;;;;;;3.00;2.80;;;;;;;16.40;58.84;155574.66;5063744;28;20445;-75
2022/07/07 02:19:32;;;;;;;5.10;2.83;;;;;;;16.35;59.03;155561.66;5102929;28;20453;-75
2022/07/07 02:21:59;;;;;;;4.33;2.50;;;;;;;16.36;59.05;155564.28;5098780;28;20466;-75
2022/07/07 02:24:26;;;;;;;3.37;3.07;;;;;;;16.35;58.92;155561.66;5086423;28;20553;-75
2022/07/07 02:26:52;;;;;;;3.40;3.10;;;;;;;16.32;59.34;155553.84;5078402;28;20504;-75
2022/07/07 02:29:19;;;;;;;3.73;2.53;;;;;;;16.30;59.26;155549.97;5105379;28;20442;-75
2022/07/07 02:31:47;;;;;;;3.07;2.77;;;;;;;16.25;59.87;155536.97;5073125;28;20438;-76
2022/07/07 02:34:17;;;;;;;5.53;2.90;;;;;;;16.20;59.96;155523.94;5070363;28;20466;-76
2022/07/07 02:36:44;;;;;;;2.90;2.40;;;;;;;16.20;60.60;155522.66;5074173;28;20499;-75
2022/07/07 02:39:11;;;;;;;3.80;2.83;;;;;;;16.16;60.92;155512.25;5069699;28;20477;-75
2022/07/07 02:41:37;;;;;;;2.70;2.50;;;;;;;16.15;61.37;155509.66;5074477;28;20450;-75
2022/07/07 02:44:05;;;;;;;7.97;3.20;;;;;;;16.13;61.57;155504.44;5070735;28;20925;-75
2022/07/07 02:46:32;;;;;;;3.53;2.43;;;;;;;16.11;61.93;155500.56;5066450;28;20449;-75
2022/07/07 02:49:00;;;;;;;3.50;3.03;;;;;;;16.08;62.22;155492.75;5067599;28;20540;-76
2022/07/07 02:51:26;;;;;;;4.10;2.93;;;;;;;16.05;62.45;155483.63;5074671;28;20447;-76
2022/07/07 02:53:53;;;;;;;4.20;2.40;;;;;;;16.02;62.36;155475.88;5072968;28;20434;-76
2022/07/07 02:56:20;;;;;;;5.13;3.30;;;;;;;15.98;62.55;155465.44;5067483;28;20460;-76
2022/07/07 02:58:47;;;;;;;3.00;2.60;;;;;;;15.99;62.85;155468.06;5102607;28;20999;-76
2022/07/07 03:01:14;;;;;;;3.70;2.60;;;;;;;15.99;63.00;155469.31;5063816;28;20517;-76
2022/07/07 03:03:40;;;;;;;3.00;2.70;;;;;;;15.95;63.08;155458.94;5094299;28;20807;-76
2022/07/07 03:06:08;;;;;;;4.60;2.63;;;;;;;15.95;62.85;155458.94;5106396;28;20944;-76
2022/07/07 03:08:35;;;;;;;2.60;2.40;;;;;;;15.92;63.21;155451.13;5072092;28;20481;-76
2022/07/07 03:11:02;;;;;;;4.73;2.57;;;;;;;15.89;63.44;155442.00;5072479;28;20430;-76
2022/07/07 03:13:29;;;;;;;3.03;2.73;;;;;;;15.90;63.20;155444.63;5068045;28;20439;-76
2022/07/07 03:15:57;;;;;;;2.80;2.47;;;;;;;15.80;63.85;155421.25;5070763;28;20459;-77
2022/07/07 03:18:24;;;;;;;3.63;3.33;;;;;;;15.79;63.83;155417.34;5071420;28;20446;-83
2022/07/07 03:20:51;;;;;;;3.00;2.70;;;;;;;15.79;64.10;155417.34;5069607;28;20438;-82
2022/07/07 03:23:19;;;;;;;4.40;3.27;;;;;;;15.80;63.60;155421.25;5069330;28;20473;-82
2022/07/07 03:25:46;;;;;;;4.20;2.53;;;;;;;15.77;64.06;155413.47;5103639;28;21027;-82
2022/07/07 03:28:12;;;;;;;3.20;2.60;;;;;;;15.74;64.25;155405.66;5071268;28;20446;-82
2022/07/07 03:30:39;;;;;;;3.20;2.93;;;;;;;15.72;64.33;155400.47;5071108;28;20537;-82
2022/07/07 03:33:06;;;;;;;3.73;2.50;;;;;;;15.70;64.12;155393.97;5071758;28;20492;-82
2022/07/07 03:35:32;;;;;;;3.47;3.10;;;;;;;15.74;63.84;155404.34;5101819;28;20569;-82
2022/07/07 03:37:59;;;;;;;3.43;2.57;;;;;;;15.72;64.26;155400.47;5105048;28;20434;-82
2022/07/07 03:40:27;;;;;;;3.27;2.80;;;;;;;15.68;64.65;155390.03;5071893;28;20851;-82
2022/07/07 03:42:54;;;;;;;4.50;3.00;;;;;;;15.72;64.38;155399.16;5072116;28;20501;-82
2022/07/07 03:45:21;;;;;;;2.90;2.60;;;;;;;15.78;64.23;155416.03;5102473;28;20838;-82
2022/07/07 03:47:50;;;;;;;3.73;2.30;;;;;;;15.81;64.20;155423.81;5104370;28;20454;-82
2022/07/07 03:50:17;;;;;;;3.67;2.60;;;;;;;15.85;64.00;155432.94;5104774;28;20442;-82
2022/07/07 03:52:43;;;;;;;4.17;3.30;;;;;;;15.88;63.66;155439.44;5111050;27;20463;-82
2022/07/07 03:55:10;;;;;;;4.60;2.80;;;;;;;15.87;63.98;155436.81;5073205;28;20944;-82
2022/07/07 03:57:39;;;;;;;3.17;2.87;;;;;;;15.90;64.00;155444.63;5104212;28;20477;-82
2022/07/07 04:00:07;;;;;;;4.37;3.00;;;;;;;15.90;63.87;155444.63;5070537;28;20481;-82
2022/07/07 04:02:35;;;;;;;4.10;2.90;;;;;;;15.90;64.01;155444.63;5104104;28;20458;-82
2022/07/07 04:05:01;;;;;;;4.53;2.70;;;;;;;15.92;64.21;155451.13;5068224;28;20948;-82
2022/07/07 04:07:28;;;;;;;2.83;2.60;;;;;;;15.89;64.20;155443.31;5070486;28;20445;-82
2022/07/07 04:09:55;;;;;;;3.23;2.90;;;;;;;15.97;64.17;155462.81;5078786;28;20457;-82
2022/07/07 04:12:22;;;;;;;3.00;2.70;;;;;;;16.00;63.79;155470.63;5079617;28;20461;-82
2022/07/07 04:14:50;;;;;;;4.20;2.83;;;;;;;16.03;63.77;155478.44;5084383;28;20537;-82
2022/07/07 04:17:16;;;;;;;3.13;2.93;;;;;;;16.03;63.85;155478.44;5068871;28;20500;-82
2022/07/07 04:19:43;;;;;;;4.83;2.87;;;;;;;16.03;63.58;155478.44;5070034;28;20553;-82
2022/07/07 04:22:10;;;;;;;2.97;2.67;;;;;;;16.06;63.56;155486.25;5063107;28;20809;-82
2022/07/07 04:24:36;;;;;;;2.97;2.67;;;;;;;16.09;63.80;155494.06;5103313;28;20976;-82
2022/07/07 04:27:04;;;;;;;2.67;2.40;;;;;;;16.11;63.43;155499.25;5078768;28;20436;-82
2022/07/07 04:29:31;;;;;;;2.90;2.70;;;;;;;16.11;63.65;155499.25;5085294;28;20831;-82
2022/07/07 04:31:59;;;;;;;2.83;2.63;;;;;;;16.09;63.89;155494.06;5071199;28;20485;-82
2022/07/07 04:34:26;;;;;;;2.90;2.67;;;;;;;16.09;63.90;155494.06;5103605;28;20446;-82
2022/07/07 04:36:53;;;;;;;3.40;3.10;;;;;;;16.10;63.96;155496.63;5071181;28;20917;-82
2022/07/07 04:39:19;;;;;;;3.80;2.80;;;;;;;16.12;64.01;155501.88;5102959;28;20517;-82
2022/07/07 04:41:46;;;;;;;3.33;2.57;;;;;;;16.16;63.73;155513.53;5069788;28;20430;-82
2022/07/07 04:44:13;;;;;;;3.67;3.37;;;;;;;16.15;64.34;155509.66;5071120;28;20470;-82
2022/07/07 04:46:39;;;;;;;3.50;2.70;;;;;;;16.15;64.50;155510.94;5101976;28;20540;-81
2022/07/07 04:49:08;;;;;;;5.13;2.60;;;;;;;16.14;64.55;155507.06;5104290;27;20498;-81
2022/07/07 04:51:34;;;;;;;3.53;3.10;;;;;;;16.17;64.45;155514.88;5070600;28;20458;-82
2022/07/07 04:54:01;;;;;;;3.23;2.80;;;;;;;16.19;64.36;155521.38;5065425;28;20448;-82
2022/07/07 04:56:28;;;;;;;3.27;2.63;;;;;;;16.20;64.13;155522.66;5069776;28;20779;-82
2022/07/07 04:58:55;;;;;;;3.97;3.03;;;;;;;16.19;64.19;155520.03;5067837;28;20470;-82
2022/07/07 05:01:22;;;;;;;3.53;2.77;;;;;;;16.23;64.12;155530.47;5103016;28;20564;-81
2022/07/07 05:03:48;;;;;;;3.00;2.70;;;;;;;16.27;64.01;155542.16;5081040;28;20466;-81
2022/07/07 05:06:16;;;;;;;4.20;3.17;;;;;;;16.40;64.06;155574.66;5069585;28;20449;-82
2022/07/07 05:08:43;;;;;;;3.03;2.70;;;;;;;16.71;63.65;155655.34;5103237;28;20531;-82
2022/07/07 05:11:10;;;;;;;6.53;3.30;;;;;;;16.84;62.75;155689.19;5059843;28;20540;-81
2022/07/07 05:13:37;;;;;;;3.60;3.10;;;;;;;16.92;62.59;155710.00;5065883;28;20515;-81
2022/07/07 05:16:05;;;;;;;4.17;2.90;;;;;;;17.13;62.27;155763.34;5074646;28;20450;-83
2022/07/07 05:18:32;;;;;;;5.30;2.93;;;;;;;17.29;61.73;155803.72;5053792;28;20474;-82
2022/07/07 05:20:59;;;;;;;3.27;2.97;;;;;;;17.68;60.84;155905.28;5088424;28;20461;-82
2022/07/07 05:23:27;;;;;;;3.63;2.67;;;;;;;18.09;60.38;156012.03;5078113;28;20469;-82
2022/07/07 05:25:57;;;;;;;3.00;2.80;;;;;;;18.36;58.77;156079.75;5090914;28;20464;-82
2022/07/07 05:28:23;;;;;;;3.67;2.77;;;;;;;18.31;57.83;156066.75;5089286;28;20531;-83
2022/07/07 05:30:50;;;;;;;3.50;3.20;;;;;;;18.16;58.22;156030.25;5080737;28;20446;-82
2022/07/07 05:33:17;;;;;;;3.63;2.70;;;;;;;18.11;58.71;156017.25;5068613;28;20540;-82
2022/07/07 05:35:44;;;;;;;4.70;3.13;;;;;;;18.10;58.73;156014.66;5102903;28;20968;-82
2022/07/07 05:38:10;;;;;;;3.00;2.80;;;;;;;18.23;58.46;156048.53;5102697;28;20469;-82
2022/07/07 05:40:39;;;;;;;2.93;2.57;;;;;;;18.31;58.23;156068.06;5073798;28;20453;-82
2022/07/07 05:43:05;;;;;;;5.87;2.83;;;;;;;18.20;58.30;156040.69;5076478;28;20474;-82
2022/07/07 05:45:32;;;;;;;2.90;2.70;;;;;;;18.16;58.75;156030.25;5085131;28;20950;-82
2022/07/07 05:47:59;;;;;;;2.87;2.40;;;;;;;18.21;59.20;156043.28;5067461;28;20785;-82
2022/07/07 05:50:26;;;;;;;3.27;2.67;;;;;;;18.72;59.06;156173.59;5071355;28;20477;-82
2022/07/07 05:52:52;;;;;;;4.73;2.80;;;;;;;19.30;57.63;156324.75;5096044;28;20440;-83
2022/07/07 05:55:19;;;;;;;3.80;2.90;;;;;;;19.71;55.27;156429.09;5071140;28;20442;-82
2022/07/07 05:57:47;;;;;;;2.90;2.70;;;;;;;20.26;54.80;156572.56;5096517;28;20466;-82
2022/07/07 06:00:15;;;;;;;3.33;2.10;;;;;;;20.81;53.03;156714.75;5076491;28;20556;-82
2022/07/07 06:02:42;;;;;;;2.80;2.50;;;;;;;21.29;51.49;156837.50;5101741;28;20441;-82
2022/07/07 06:05:09;;;;;;;2.80;2.50;;;;;;;21.53;49.57;156901.44;5073362;28;20437;-82
2022/07/07 06:07:35;;;;;;;3.20;2.43;;;;;;;21.51;48.97;156896.22;5102306;28;20521;-82
2022/07/07 06:10:03;;;;;;;2.60;2.40;;;;;;;21.33;49.67;156847.94;5071747;28;20546;-82
2022/07/07 06:12:30;;;;;;;2.87;2.67;;;;;;;21.49;49.47;156891.03;5070228;28;20520;-82
2022/07/07 06:14:58;;;;;;;3.00;2.70;;;;;;;21.25;50.40;156828.34;5070477;28;20548;-82
2022/07/07 06:17:25;;;;;;;4.37;2.93;;;;;;;21.13;50.29;156797.00;5071834;28;20434;-83
2022/07/07 06:19:51;;;;;;;3.23;2.70;;;;;;;20.91;51.53;156739.56;5063644;28;20549;-82
2022/07/07 06:22:18;;;;;;;2.50;2.30;;;;;;;20.97;51.28;156755.25;5053271;28;20441;-82
2022/07/07 06:24:45;;;;;;;3.00;2.20;;;;;;;21.10;51.58;156789.22;5063183;28;20481;-82
2022/07/07 06:27:12;;;;;;;3.70;2.77;;;;;;;21.22;51.07;156820.53;5072581;28;20422;-82
2022/07/07 06:29:38;;;;;;;4.77;3.03;;;;;;;21.61;50.90;156922.31;5065404;28;20537;-82
2022/07/07 06:32:08;;;;;;;3.40;2.37;;;;;;;21.87;50.18;156987.69;5066560;28;20508;-82
2022/07/07 06:34:34;;;;;;;2.90;2.60;;;;;;;21.91;49.51;156999.41;5105776;28;20508;-82
2022/07/07 06:37:01;;;;;;;2.63;2.43;;;;;;;22.11;49.42;157050.31;5104569;28;20789;-82
2022/07/07 06:39:28;;;;;;;3.30;2.50;;;;;;;22.44;48.39;157136.53;5068452;28;20962;-82
2022/07/07 06:41:54;;;;;;;3.40;2.60;;;;;;;22.81;47.70;157233.25;5062596;28;20434;-83
2022/07/07 06:44:21;;;;;;;4.93;2.70;;;;;;;23.16;47.32;157323.44;5071318;28;20667;-83
2022/07/07 06:46:48;;;;;;;2.83;2.53;;;;;;;23.35;46.68;157373.06;5072985;28;20852;-83
2022/07/07 06:49:16;;;;;;;3.30;2.50;;;;;;;23.76;46.52;157479.00;5082113;28;20429;-83
2022/07/07 06:51:43;;;;;;;3.80;2.60;;;;;;;23.99;45.58;157539.13;5073645;28;20494;-82
2022/07/07 06:54:09;;;;;;;2.53;2.30;;;;;;;23.98;45.05;157536.56;5072067;28;20546;-82
2022/07/07 06:56:36;;;;;;;3.40;2.67;;;;;;;23.85;44.37;157502.56;5059435;28;20442;-83
2022/07/07 06:59:03;;;;;;;3.97;2.93;;;;;;;23.58;44.25;157431.97;5061532;28;20483;-83
2022/07/07 07:01:30;;;;;;;2.40;2.20;;;;;;;23.32;45.13;157365.25;5071619;28;20448;-83
2022/07/07 07:03:57;;;;;;;4.20;2.70;;;;;;;23.36;45.01;157374.38;5071382;28;20505;-83
2022/07/07 07:06:25;;;;;;;5.17;2.93;;;;;;;23.27;45.58;157350.88;5077773;28;20553;-83
2022/07/07 07:08:52;;;;;;;2.70;2.50;;;;;;;23.12;45.40;157311.63;5125609;27;20451;-83
2022/07/07 07:11:19;;;;;;;3.10;2.60;;;;;;;23.20;45.69;157333.88;5077932;28;20717;-83
2022/07/07 07:13:47;;;;;;;2.63;2.43;;;;;;;23.38;45.38;157380.97;5067642;28;20801;-83
2022/07/07 07:16:14;;;;;;;3.50;2.93;;;;;;;23.36;45.67;157374.38;5071039;28;20454;-83
2022/07/07 07:18:41;;;;;;;7.00;2.83;;;;;;;23.32;45.79;157365.25;5072186;28;20426;-83
2022/07/07 07:21:07;;;;;;;2.90;2.60;;;;;;;23.23;45.23;157340.41;5105085;28;20484;-83
2022/07/07 07:23:35;;;;;;;3.13;2.60;;;;;;;23.07;46.59;157299.88;5072806;28;20520;-83
2022/07/07 07:26:02;;;;;;;3.40;3.10;;;;;;;23.03;46.58;157290.72;5091742;28;20449;-83
2022/07/07 07:28:29;;;;;;;3.27;3.00;;;;;;;22.96;47.14;157271.13;5120972;27;20442;-83
2022/07/07 07:30:56;;;;;;;3.37;3.07;;;;;;;22.81;47.76;157233.25;5071818;28;20454;-83
2022/07/07 07:33:22;;;;;;;2.93;2.63;;;;;;;22.75;47.54;157216.25;5104499;28;20472;-83
2022/07/07 07:35:49;;;;;;;4.33;3.10;;;;;;;22.66;47.47;157194.09;5073272;28;20440;-83
2022/07/07 07:38:16;;;;;;;3.23;2.93;;;;;;;22.67;47.78;157196.66;5073198;28;20908;-83
2022/07/07 07:40:44;;;;;;;3.10;2.63;;;;;;;22.62;48.06;157183.56;5109127;27;20449;-83
2022/07/07 07:43:11;;;;;;;4.00;2.40;;;;;;;22.56;48.21;157167.88;5092275;28;20465;-83
2022/07/07 07:45:38;;;;;;;5.33;2.83;;;;;;;22.57;48.24;157170.50;5092865;28;21019;-83
2022/07/07 07:48:05;;;;;;;3.90;3.07;;;;;;;22.42;48.61;157132.59;5125316;27;20955;-83
2022/07/07 07:50:33;;;;;;;4.30;3.07;;;;;;;22.35;49.02;157113.00;5076359;28;20628;-83
2022/07/07 07:53:00;;;;;;;3.30;3.00;;;;;;;22.37;48.99;157119.53;5071709;28;20438;-83
2022/07/07 07:55:27;;;;;;;4.43;3.03;;;;;;;22.46;49.09;157141.75;5086607;28;20476;-83
2022/07/07 07:57:55;;;;;;;3.63;3.10;;;;;;;22.53;48.82;157158.75;5079317;28;20515;-83
2022/07/07 08:00:22;;;;;;;3.03;2.73;;;;;;;22.54;48.71;157162.66;5065731;28;20462;-83
2022/07/07 08:02:49;;;;;;;4.30;3.00;;;;;;;22.48;49.23;157145.69;5051661;28;20877;-83
2022/07/07 08:05:17;;;;;;;3.30;3.00;;;;;;;22.25;49.63;157086.91;5057685;28;20480;-83
2022/07/07 08:07:44;;;;;;;4.23;3.00;;;;;;;22.19;50.30;157071.22;5071994;28;20949;-83
2022/07/07 08:10:12;;;;;;;8.60;3.47;;;;;;;22.04;50.49;157032.03;5072265;28;20539;-83
2022/07/07 08:12:39;;;;;;;3.70;3.00;;;;;;;21.94;51.16;157007.25;5064456;28;20450;-83
2022/07/07 08:15:08;;;;;;;4.00;3.20;;;;;;;21.82;51.13;156975.84;5074399;28;20482;-83
2022/07/07 08:17:35;;;;;;;4.47;3.53;;;;;;;21.62;51.40;156923.63;5070580;28;20537;-83
2022/07/07 08:20:03;;;;;;;6.30;3.43;;;;;;;21.58;51.95;156914.47;5070346;28;20976;-83
2022/07/07 08:22:30;;;;;;;4.17;3.50;;;;;;;21.53;52.12;156901.44;5104380;28;20449;-83
2022/07/07 08:24:56;;;;;;;4.47;3.47;;;;;;;21.53;52.00;156901.44;5069998;28;20477;-83
2022/07/07 08:27:23;;;;;;;4.30;3.53;;;;;;;21.56;52.13;156909.28;5071752;28;20466;-83
2022/07/07 08:29:50;;;;;;;3.50;3.20;;;;;;;21.55;52.41;156906.66;5071388;28;20446;-83
2022/07/07 08:32:18;;;;;;;3.40;3.10;;;;;;;21.54;52.84;156904.06;5088760;28;20445;-83
2022/07/07 08:34:46;;;;;;;3.87;3.50;;;;;;;21.52;52.68;156898.84;5076162;28;20454;-83
2022/07/07 08:37:13;;;;;;;3.60;3.30;;;;;;;21.52;52.80;156898.84;5071753;28;20771;-83
2022/07/07 08:39:40;;;;;;;3.40;3.10;;;;;;;21.48;53.07;156888.38;5103794;28;20500;-83
2022/07/07 08:42:07;;;;;;;8.13;3.90;;;;;;;21.44;53.19;156877.97;5071274;28;20884;-83
2022/07/07 08:44:34;;;;;;;4.90;3.40;;;;;;;21.33;53.48;156849.25;5104318;28;20576;-83
2022/07/07 08:47:01;;;;;;;4.50;3.93;;;;;;;21.27;53.53;156833.56;5064598;28;20813;-83
2022/07/07 08:49:29;;;;;;;4.00;3.53;;;;;;;21.26;53.67;156829.66;5067717;28;20447;-83
2022/07/07 08:51:57;;;;;;;4.20;3.80;;;;;;;21.18;53.99;156811.38;5070203;28;21013;-83
2022/07/07 08:54:25;;;;;;;8.40;3.93;;;;;;;21.23;54.32;156824.41;5071069;28;20448;-83
2022/07/07 08:56:52;;;;;;;3.83;3.53;;;;;;;21.52;54.46;156897.53;5070176;28;20438;-83
2022/07/07 08:59:19;;;;;;;4.87;4.47;;;;;;;21.84;53.37;156982.38;5070847;28;20552;-83
2022/07/07 09:01:54;;;;;;;4.33;4.00;;;;;;;22.13;53.46;157055.56;5066928;28;20821;-83
2022/07/07 09:04:21;;;;;;;7.53;3.97;;;;;;;22.52;53.52;157157.44;5073705;28;21018;-83
2022/07/07 09:06:54;;;;;;;6.00;3.87;;;;;;;22.97;52.97;157273.75;5068812;28;20438;-83
2022/07/07 09:09:41;;;;;;;4.87;4.37;;;;;;;23.29;51.20;157356.09;5071201;28;20532;-83
2022/07/07 09:12:09;;;;;;;3.70;3.40;;;;;;;23.36;51.22;157374.38;5072053;28;20544;-83
2022/07/07 09:14:38;;;;;;;4.90;3.70;;;;;;;23.58;50.34;157431.97;5069687;28;20887;-83
2022/07/07 09:17:15;;;;;;;4.20;3.90;;;;;;;23.90;50.79;157515.63;5057297;28;20437;-83
2022/07/07 09:19:43;;;;;;;3.90;3.47;;;;;;;24.07;49.91;157560.06;5075599;28;20452;-83
2022/07/07 09:22:11;;;;;;;4.33;3.93;;;;;;;23.84;50.10;157499.94;5085468;28;20556;-83
2022/07/07 09:24:55;;;;;;;4.37;3.97;;;;;;;23.66;50.68;157451.56;5069820;28;20469;-83
2022/07/07 09:27:22;;;;;;;4.00;3.70;;;;;;;23.49;51.11;157409.72;5074876;28;20531;-83
2022/07/07 09:29:50;;;;;;;4.10;3.70;;;;;;;23.37;51.32;157378.38;5074460;28;20540;-82
2022/07/07 09:32:17;;;;;;;3.90;3.30;;;;;;;23.18;52.33;157327.34;5074212;28;20844;-83
2022/07/07 09:34:44;;;;;;;3.73;3.20;;;;;;;23.04;52.78;157292.03;5089903;28;20454;-83
2022/07/07 09:39:59;;;;;;;3.67;3.30;;;;;;;22.72;54.16;157208.41;5044606;28;20450;-83
2022/07/07 09:42:27;;;;;;;2.40;2.20;;;;;;;22.63;54.06;157186.25;5086676;28;20438;-83
2022/07/07 09:44:55;;;;;;;2.83;2.63;;;;;;;22.51;54.68;157153.50;5062869;28;20840;-83
2022/07/07 09:47:23;;;;;;;3.67;2.30;;;;;;;22.36;54.96;157115.63;5073758;28;20442;-83
2022/07/07 09:49:59;;;;;;;2.40;2.20;;;;;;;22.18;56.50;157068.63;5072788;28;20449;-83
2022/07/07 09:52:28;;;;;;;2.70;2.23;;;;;;;22.09;56.78;157045.09;5074779;28;20417;-83
2022/07/07 09:54:54;;;;;;;3.50;2.10;;;;;;;22.00;56.24;157021.63;5074141;28;20454;-83
2022/07/07 09:57:21;;;;;;;3.87;2.37;;;;;;;21.88;56.70;156990.25;5074141;28;20491;-83
2022/07/07 09:59:48;;;;;;;4.07;2.40;;;;;;;21.80;56.80;156970.63;5106559;28;20553;-83
2022/07/07 10:02:19;;;;;;;2.40;2.20;;;;;;;21.55;57.60;156905.38;5104316;28;20441;-83
2022/07/07 10:04:48;;;;;;;3.00;2.37;;;;;;;21.42;58.69;156872.72;5071884;28;20469;-83
2022/07/07 10:07:18;;;;;;;2.37;2.10;;;;;;;21.48;58.66;156887.06;5072751;28;20429;-83
2022/07/07 10:09:50;;;;;;;3.00;2.37;;;;;;;21.41;58.80;156870.13;5069836;28;20485;-83
2022/07/07 10:12:17;;;;;;;2.63;2.40;;;;;;;21.44;58.93;156877.97;5085754;28;20530;-83
2022/07/07 10:14:45;;;;;;;2.40;2.20;;;;;;;21.43;58.49;156875.34;5072773;28;20445;-83
2022/07/07 10:17:16;;;;;;;2.60;2.40;;;;;;;21.49;58.28;156891.03;5073194;28;20516;-83
2022/07/07 10:19:43;;;;;;;3.07;2.77;;;;;;;21.64;58.71;156928.84;5072879;28;20434;-83
2022/07/07 10:22:11;;;;;;;2.70;2.50;;;;;;;21.64;58.39;156930.16;5071281;28;20446;-84
2022/07/07 10:24:38;;;;;;;3.10;2.77;;;;;;;21.73;58.50;156953.69;5072559;28;20569;-84
2022/07/07 10:27:08;;;;;;;2.83;2.53;;;;;;;21.91;58.15;156998.09;5072347;28;20442;-84
2022/07/07 10:29:40;;;;;;;2.73;2.53;;;;;;;22.08;58.11;157042.53;5073737;28;20774;-83
2022/07/07 10:32:08;;;;;;;2.87;2.63;;;;;;;22.26;57.07;157089.53;5106885;28;20434;-83
2022/07/07 10:34:37;;;;;;;2.77;2.57;;;;;;;22.34;56.45;157110.44;5073752;28;20464;-84
2022/07/07 10:37:06;;;;;;;2.70;2.50;;;;;;;22.44;57.28;157137.84;5072232;28;20939;-83
2022/07/07 10:39:36;;;;;;;3.97;2.97;;;;;;;22.61;56.38;157179.66;5073531;28;20965;-83
2022/07/07 10:42:07;;;;;;;6.07;2.87;;;;;;;22.69;55.64;157201.88;5071888;28;20438;-83
2022/07/07 10:44:35;;;;;;;2.80;2.60;;;;;;;22.63;55.07;157186.25;5114340;27;20478;-84
2022/07/07 10:47:05;;;;;;;5.30;2.67;;;;;;;22.58;55.22;157173.13;5073433;28;20440;-83
2022/07/07 10:49:40;;;;;;;2.93;2.60;;;;;;;22.55;55.54;157165.28;5072368;28;20836;-84
2022/07/07 10:52:12;;;;;;;2.57;2.37;;;;;;;22.56;55.50;157167.88;5072936;28;20528;-84
2022/07/07 10:54:40;;;;;;;2.50;2.30;;;;;;;22.64;54.96;157188.81;5073599;28;20438;-84
2022/07/07 10:57:14;;;;;;;3.00;2.23;;;;;;;22.72;54.87;157209.72;5105548;28;20546;-83
2022/07/07 11:00:09;;;;;;;3.53;3.13;;;;;;;22.71;54.96;157207.16;5073198;28;20528;-83
2022/07/07 11:02:37;;;;;;;3.40;3.10;;;;;;;22.55;54.98;157163.97;5072699;28;20917;-83
2022/07/07 11:05:05;;;;;;;3.30;2.70;;;;;;;22.49;55.15;157149.59;5105919;28;20505;-83
2022/07/07 11:07:32;;;;;;;3.17;2.87;;;;;;;22.45;56.12;157139.16;5105716;28;20871;-83
2022/07/07 11:09:59;;;;;;;3.40;3.10;;;;;;;22.34;56.43;157110.44;5073724;28;20528;-77
2022/07/07 11:12:39;;;;;;;3.17;2.63;;;;;;;22.41;56.68;157128.69;5072492;28;20844;-77
2022/07/07 11:15:37;;;;;;;2.50;2.30;;;;;;;22.31;56.38;157103.91;5068407;28;20446;-77
2022/07/07 11:18:12;;;;;;;4.13;2.77;;;;;;;22.13;56.34;157055.56;5073381;28;20457;-77
2022/07/07 11:20:52;;;;;;;3.70;2.60;;;;;;;22.05;56.61;157034.69;5125722;27;20551;-77
2022/07/07 11:23:19;;;;;;;2.60;2.40;;;;;;;22.04;57.52;157033.38;5091557;28;20437;-77
2022/07/07 11:25:47;;;;;;;3.87;2.60;;;;;;;22.01;57.14;157024.22;5080173;28;20549;-77
2022/07/07 11:28:15;;;;;;;2.80;2.10;;;;;;;21.97;57.79;157013.78;5071674;28;20509;-77
2022/07/07 11:30:42;;;;;;;2.43;2.13;;;;;;;21.98;57.99;157016.38;5072671;28;20438;-77